Latest Weather Observations for Norah Head

IDN60801

Issued at 5:05 pm EST Thursday 18 September 2014 (issued every 30 minutes, with the page automatically refreshed every 10 minutes)

About weather observations | Map of weather stations | Latest weather observations for NSW | Other Formats
Station Details ID: 061366 Name: NORAH HEAD AWS Lat: -33.28 Lon: 151.58 Height: 18.8 m
Data from the previous 72 hours. | See also: Recent months at Norah Head
Date/Time
EST
Temp
°C
App
Temp
°C
Dew
Point
Rel
Hum
%
Delta-T
°C
Wind Press
QNH
hPa
Press
MSL
hPa
Rain
since 9 am
mm
Dir
 
Spd
km/h
Gust
km/h
Spd
kts
Gust
kts
18/05:00pm 15.2 9.0 6.2 55 4.3 S 28 33 15 18 1017.8 1017.7 0.0
18/04:30pm 15.6 8.4 6.1 53 4.6 S 33 39 18 21 1017.3 1017.2 0.0
18/04:00pm 16.0 9.2 5.0 48 5.2 SSE 30 35 16 19 1017.2 1017.1 0.0
18/03:30pm 15.6 8.3 4.3 47 5.3 SSE 32 37 17 20 1016.9 1016.8 0.0
18/03:00pm 16.2 9.0 6.1 51 4.9 SSE 33 39 18 21 1016.7 1016.6 0.0
18/02:30pm 16.5 9.7 4.9 46 5.5 SSE 30 35 16 19 1016.9 1016.8 0.0
18/02:00pm 16.7 10.3 5.0 46 5.6 SSE 28 33 15 18 1016.9 1016.8 0.0
18/01:30pm 16.9 11.4 5.8 48 5.4 S 24 32 13 17 1017.2 1017.1 0.0
18/01:00pm 16.8 10.7 4.8 45 5.7 S 26 32 14 17 1017.3 1017.2 0.0
18/12:30pm 17.1 11.4 4.8 44 5.9 S 24 28 13 15 1017.5 1017.4 0.0
18/12:00pm 17.1 11.8 5.1 45 5.7 S 22 28 12 15 1017.8 1017.7 0.0
18/11:30am 16.8 12.0 4.8 45 5.7 S 19 30 10 16 1018.2 1018.1 0.0
18/11:00am 16.4 12.0 2.8 40 6.2 SSW 15 24 8 13 1018.5 1018.4 0.0
18/10:30am 16.4 12.7 2.1 38 6.4 SW 11 22 6 12 1018.5 1018.4 0.0
18/10:00am 16.5 12.8 2.5 39 6.3 SW 11 20 6 11 1018.4 1018.3 0.0
18/09:30am 16.2 13.0 3.3 42 5.9 SW 9 17 5 9 1018.5 1018.4 0.0
18/09:00am 15.9 13.0 4.6 47 5.3 WSW 9 17 5 9 1018.6 1018.5 0.0
18/08:30am 15.1 12.6 4.5 49 4.9 W 7 19 4 10 1018.5 1018.4 0.0
18/08:00am 14.7 12.4 4.7 51 4.6 W 6 13 3 7 1018.4 1018.3 0.0
18/07:30am 14.0 11.9 5.6 57 4.0 W 6 9 3 5 1018.1 1018.0 0.0
18/07:00am 13.1 10.9 5.5 60 3.5 WNW 6 9 3 5 1017.9 1017.8 0.0
18/06:30am 12.0 9.5 5.0 62 3.2 W 7 11 4 6 1017.5 1017.4 0.0
18/06:00am 11.6 9.1 5.0 64 3.0 W 7 11 4 6 1017.2 1017.1 0.0
18/05:30am 11.2 8.3 4.7 64 2.9 W 9 11 5 6 1017.2 1017.1 0.0
18/05:00am 11.4 8.2 5.1 65 2.9 W 11 13 6 7 1016.7 1016.6 0.0
18/04:30am 11.8 9.0 5.2 64 3.0 W 9 13 5 7 1016.4 1016.3 0.0
18/04:00am 11.5 9.2 5.6 67 2.7 W 7 9 4 5 1016.2 1016.1 0.0
18/03:30am 11.7 9.3 5.3 65 2.9 W 7 9 4 5 1015.8 1015.7 0.0
18/03:00am 12.4 10.0 5.1 61 3.4 W 7 9 4 5 1015.6 1015.5 0.0
18/02:30am 13.0 10.4 4.4 56 3.9 W 7 11 4 6 1015.4 1015.3 0.0
18/02:00am 13.1 10.5 4.0 54 4.1 W 7 13 4 7 1015.5 1015.4 0.0
18/01:30am 13.6 10.6 4.2 53 4.3 W 9 11 5 6 1015.6 1015.5 0.0
18/01:00am 14.0 10.9 3.5 49 4.7 W 9 19 5 10 1015.6 1015.5 0.0
18/12:30am 13.7 10.8 4.6 54 4.2 W 9 15 5 8 1015.5 1015.4 0.0
18/12:00am 13.5 10.7 5.2 57 3.9 W 9 15 5 8 1015.4 1015.3 0.0
 
Date/Time
EST
Temp
°C
App
Temp
°C
Dew
Point
Rel
Hum
%
Delta-T
°C
Wind Press
QNH
hPa
Press
MSL
hPa
Rain
since 9 am
mm
Dir
 
Spd
km/h
Gust
km/h
Spd
kts
Gust
kts
17/11:30pm 13.8 11.6 5.4 57 3.9 W 6 9 3 5 1015.4 1015.3 0.0
17/11:00pm 14.0 11.6 5.1 55 4.2 W 7 13 4 7 1015.3 1015.2 0.0
17/10:30pm 13.3 11.0 4.7 56 4.0 WNW 6 7 3 4 1015.1 1015.0 0.0
17/10:00pm 13.8 11.5 4.7 54 4.2 WNW 6 7 3 4 1014.9 1014.8 0.0
17/09:30pm 14.7 12.9 5.5 54 4.4 WNW 4 6 2 3 1014.8 1014.7 0.0
17/09:00pm 15.0 13.2 5.5 53 4.5 W 4 7 2 4 1014.7 1014.6 0.0
17/08:30pm 15.7 13.2 5.0 49 5.1 WSW 7 9 4 5 1014.4 1014.3 0.0
17/08:00pm 15.2 13.2 4.6 49 4.9 WNW 4 6 2 3 1014.0 1013.9 0.0
17/07:30pm 15.9 13.6 4.6 47 5.3 W 6 11 3 6 1013.7 1013.6 0.0
17/07:00pm 16.6 14.2 4.3 44 5.8 W 6 7 3 4 1013.2 1013.1 0.0
17/06:30pm 17.2 14.5 3.5 40 6.4 W 7 11 4 6 1013.1 1013.0 0.0
17/06:00pm 17.9 14.2 2.6 36 7.0 W 11 20 6 11 1012.6 1012.5 0.0
17/05:30pm 18.6 14.1 2.0 33 7.5 WSW 15 30 8 16 1012.3 1012.2 0.0
17/05:00pm 19.0 15.0 2.8 34 7.5 WSW 13 22 7 12 1011.8 1011.7 0.0
17/04:30pm 20.0 16.1 3.3 33 7.9 SW 13 30 7 16 1011.3 1011.2 0.0
17/04:00pm 20.6 16.9 4.2 34 7.9 SW 13 22 7 12 1010.8 1010.7 0.0
17/03:30pm 20.9 17.7 5.3 36 7.7 SW 11 19 6 10 1010.2 1010.1 0.0
17/03:00pm 21.0 17.2 3.7 32 8.3 WSW 13 28 7 15 1010.0 1009.9 0.0
17/02:30pm 21.1 18.1 4.2 33 8.2 W 9 19 5 10 1010.0 1009.9 0.0
17/02:00pm 20.9 17.4 3.6 32 8.3 WSW 11 22 6 12 1010.0 1009.9 0.0
17/01:30pm 21.4 18.8 4.0 32 8.4 W 7 17 4 9 1010.4 1010.3 0.0
17/01:00pm 21.5 18.8 5.4 35 8.0 W 9 24 5 13 1010.4 1010.3 0.0
17/12:30pm 20.6 17.9 3.8 33 8.0 WSW 7 15 4 8 1010.8 1010.7 0.0
17/12:00pm 20.0 16.9 3.7 34 7.8 SW 9 20 5 11 1011.1 1011.0 0.0
17/11:30am 19.9 16.9 4.0 35 7.6 WSW 9 19 5 10 1011.6 1011.5 0.0
17/11:00am 19.6 16.2 4.1 36 7.4 WSW 11 26 6 14 1011.9 1011.8 0.0
17/10:30am 19.3 16.0 4.3 37 7.2 W 11 26 6 14 1012.2 1012.1 0.0
17/10:00am 18.9 15.2 4.3 38 7.0 W 13 24 7 13 1012.4 1012.3 0.0
17/09:30am 18.3 13.5 4.8 41 6.5 W 19 32 10 17 1012.8 1012.7 0.0
17/09:00am 17.4 13.6 3.7 40 6.4 W 13 26 7 14 1012.9 1012.8 0.2
17/08:30am 17.5 14.5 6.1 47 5.6 W 11 20 6 11 1012.9 1012.8 0.2
17/08:00am 16.4 13.4 6.2 51 5.0 W 11 26 6 14 1012.8 1012.7 0.2
17/07:30am 16.3 14.5 7.8 57 4.3 W 7 15 4 8 1012.5 1012.4 0.2
17/07:00am 15.5 13.7 7.8 60 3.9 WNW 7 17 4 9 1012.3 1012.2 0.2
17/06:30am 14.5 13.1 8.9 69 2.8 WNW 6 7 3 4 1011.9 1011.8 0.2
17/06:00am 13.8 12.2 8.0 68 2.9 WNW 6 11 3 6 1011.7 1011.6 0.2
17/05:30am 13.6 12.0 8.0 69 2.8 WNW 6 11 3 6 1011.2 1011.1 0.2
17/05:00am 13.7 12.5 7.9 68 2.9 WNW 4 7 2 4 1010.9 1010.8 0.2
17/04:30am 14.2 12.5 7.7 65 3.2 WNW 6 9 3 5 1010.3 1010.2 0.2
17/04:00am 14.6 12.8 7.9 64 3.3 WNW 7 17 4 9 1010.3 1010.2 0.2
17/03:30am 14.8 12.5 7.6 62 3.6 WNW 9 17 5 9 1009.9 1009.8 0.2
17/03:00am 14.9 13.3 7.9 63 3.5 NW 6 17 3 9 1009.7 1009.6 0.2
17/02:30am 15.0 13.2 8.0 63 3.5 WNW 7 19 4 10 1009.7 1009.6 0.2
17/02:00am 15.1 13.2 7.6 61 3.7 WNW 7 15 4 8 1009.9 1009.8 0.2
17/01:30am 15.1 13.5 7.9 62 3.6 NW 6 11 3 6 1009.9 1009.8 0.2
17/01:00am 15.5 13.8 8.3 62 3.6 WNW 7 17 4 9 1009.9 1009.8 0.2
17/12:30am 15.8 14.0 8.1 60 3.9 WNW 7 20 4 11 1010.0 1009.9 0.2
17/12:00am 15.7 14.0 7.7 59 4.0 W 6 11 3 6 1010.3 1010.2 0.2
 
Date/Time
EST
Temp
°C
App
Temp
°C
Dew
Point
Rel
Hum
%
Delta-T
°C
Wind Press
QNH
hPa
Press
MSL
hPa
Rain
since 9 am
mm
Dir
 
Spd
km/h
Gust
km/h
Spd
kts
Gust
kts
16/11:30pm 15.9 14.0 7.7 58 4.1 WNW 7 19 4 10 1010.1 1010.0 0.2
16/11:00pm 16.3 14.6 7.5 56 4.4 W 6 11 3 6 1010.1 1010.0 0.2
16/10:30pm 17.2 14.8 7.0 51 5.1 W 9 19 5 10 1010.4 1010.3 0.2
16/10:00pm 17.8 15.0 7.0 49 5.4 W 11 20 6 11 1010.4 1010.3 0.2
16/09:30pm 17.8 16.0 7.8 52 5.1 W 7 15 4 8 1010.1 1010.0 0.2
16/09:00pm 18.2 15.6 7.9 51 5.3 W 11 19 6 10 1009.9 1009.8 0.2
16/08:30pm 18.9 16.5 8.6 51 5.3 WSW 11 17 6 9 1009.5 1009.4 0.2
16/08:00pm 19.2 17.0 7.9 48 5.8 WSW 9 15 5 8 1009.1 1009.1 0.2
16/07:30pm 19.9 17.4 6.6 42 6.7 W 9 15 5 8 1008.9 1008.9 0.2
16/07:00pm 20.5 17.6 6.5 40 7.1 WNW 11 22 6 12 1008.4 1008.4 0.2
16/06:30pm 20.3 18.4 7.7 44 6.5 W 7 15 4 8 1007.8 1007.8 0.2
16/06:00pm 20.8 18.5 7.4 42 6.9 W 9 17 5 9 1007.3 1007.3 0.2
16/05:30pm 21.3 18.6 7.2 40 7.2 W 11 19 6 10 1006.7 1006.7 0.2
16/05:00pm 22.1 19.0 7.1 38 7.7 W 13 26 7 14 1006.3 1006.3 0.2
16/04:30pm 21.2 20.1 10.1 49 6.0 W 6 19 3 10 1005.8 1005.8 0.2
16/04:00pm 20.7 19.4 15.9 74 2.9 ENE 17 22 9 12 1005.4 1005.4 0.2
16/03:30pm 20.6 19.3 15.8 74 2.9 ENE 17 20 9 11 1005.4 1005.4 0.2
16/03:00pm 20.5 19.2 16.7 79 2.3 NE 19 32 10 17 1005.2 1005.2 0.2
16/02:30pm 19.4 15.6 16.8 85 1.6 NE 32 41 17 22 1005.2 1005.2 0.2
16/02:00pm 19.8 16.3 16.4 81 2.0 NE 30 35 16 19 1005.6 1005.6 0.2
16/01:30pm 20.5 17.2 16.9 80 2.2 NE 30 33 16 18 1006.0 1006.0 0.2
16/01:00pm 20.4 17.5 16.0 76 2.6 NE 26 30 14 16 1006.5 1006.5 0.2
16/12:30pm 20.6 18.3 15.8 74 2.9 NE 22 26 12 14 1007.2 1007.2 0.2
16/12:00pm 20.6 18.8 16.0 75 2.8 NE 20 24 11 13 1007.9 1007.9 0.2
16/11:30am 19.7 17.4 15.8 78 2.3 NE 22 26 12 14 1008.6 1008.6 0.2
16/11:00am 20.0 16.6 15.8 77 2.5 NNE 28 32 15 17 1009.1 1009.1 0.2
16/10:30am 19.6 16.3 16.1 80 2.1 NNE 28 35 15 19 1009.6 1009.5 0.2
16/10:00am 18.4 14.9 15.5 83 1.7 NNE 28 33 15 18 1009.7 1009.6 0.2
16/09:30am 17.9 14.4 15.5 86 1.4 NNE 28 33 15 18 1010.4 1010.3 0.2
16/09:00am 19.5 15.6 15.6 78 2.3 NNE 30 35 16 19 1010.8 1010.7 0.6
16/08:30am 19.1 14.8 15.8 81 2.0 NNE 33 39 18 21 1010.8 1010.7 0.6
16/08:00am 18.5 13.1 15.0 80 2.0 NE 37 46 20 25 1010.8 1010.7 0.6
16/07:30am 18.1 13.3 15.5 85 1.5 NE 35 43 19 23 1011.1 1011.0 0.6
16/07:00am 17.1 13.4 15.1 88 1.2 NE 28 39 15 21 1011.2 1011.1 0.6
16/06:30am 17.0 14.9 14.8 87 1.3 NNE 19 22 10 12 1012.6 1012.5 0.6
16/06:00am 16.6 16.8 14.6 88 1.1 SSE 7 13 4 7 1012.9 1012.8 0.6
16/05:30am 16.6 17.5 14.1 85 1.4 WSW 2 9 1 5 1013.2 1013.1 0.6
16/05:00am 17.5 12.9 15.0 85 1.5 NNE 33 39 18 21 1012.4 1012.3 0.6
16/04:30am 17.5 11.6 14.6 83 1.7 NNE 39 46 21 25 1011.6 1011.5 0.6
16/04:00am 17.6 12.2 14.9 84 1.6 NNE 37 43 20 23 1011.5 1011.4 0.6
16/03:30am 17.5 12.0 14.6 83 1.7 NNE 37 44 20 24 1011.6 1011.5 0.6
16/03:00am 17.3 12.6 14.8 85 1.4 NE 33 41 18 22 1011.8 1011.7 0.6
16/02:30am 17.2 12.6 14.5 84 1.6 NNE 32 39 17 21 1012.5 1012.4 0.6
16/02:00am 17.1 12.2 14.4 84 1.5 NNE 33 43 18 23 1013.0 1012.9 0.6
16/01:30am 16.8 12.2 14.6 87 1.3 NE 32 39 17 21 1013.1 1013.0 0.6
16/01:29am 16.8 12.2 14.6 87 1.3 NE 32 35 17 19 1013.1 1013.0 0.6
16/01:00am 16.8 12.9 14.4 86 1.4 NNE 28 32 15 17 1015.1 1015.0 0.4
16/12:30am 17.2 13.9 14.1 82 1.8 N 24 30 13 16 1015.3 1015.2 0.0
16/12:00am 17.6 12.5 13.7 78 2.2 NNE 33 39 18 21 1014.7 1014.6 0.0
 
Date/Time
EST
Temp
°C
App
Temp
°C
Dew
Point
Rel
Hum
%
Delta-T
°C
Wind Press
QNH
hPa
Press
MSL
hPa
Rain
since 9 am
mm
Dir
 
Spd
km/h
Gust
km/h
Spd
kts
Gust
kts
15/11:30pm 17.5 12.9 13.4 77 2.3 NNE 30 35 16 19 1015.1 1015.0 0.0
15/11:00pm 17.3 13.0 13.2 77 2.3 NNE 28 33 15 18 1015.4 1015.3 0.0
15/10:30pm 17.4 13.2 13.5 78 2.2 NNE 28 33 15 18 1015.5 1015.4 0.0
15/10:00pm 17.4 12.6 12.9 75 2.5 NNE 30 33 16 18 1015.9 1015.8 0.0
15/09:30pm 17.3 13.3 13.0 76 2.4 NNE 26 30 14 16 1016.2 1016.1 0.0
15/09:00pm 17.2 12.9 13.1 77 2.3 NNE 28 32 15 17 1016.0 1015.9 0.0
15/08:30pm 17.2 13.2 13.1 77 2.3 NE 26 30 14 16 1016.1 1016.0 0.0
15/08:00pm 17.0 13.8 13.1 78 2.2 NE 22 28 12 15 1016.2 1016.1 0.0
15/07:30pm 16.9 13.6 12.8 77 2.3 NE 22 28 12 15 1016.0 1015.9 0.0
15/07:00pm 16.8 13.5 12.7 77 2.3 NE 22 26 12 14 1015.8 1015.7 0.0
15/06:30pm 16.9 14.0 13.0 78 2.2 NE 20 24 11 13 1015.6 1015.5 0.0
15/06:00pm 16.8 13.8 12.5 76 2.4 NE 20 22 11 12 1015.5 1015.4 0.0
15/05:30pm 17.1 14.1 12.6 75 2.5 ENE 20 24 11 13 1015.4 1015.3 0.0

Other Formats:

Comma delimited format used in spreadsheet applications
http://www.bom.gov.au/fwo/IDN60801/IDN60801.95770.axf

JavaScript Object Notation format (JSON) in row-major order
http://www.bom.gov.au/fwo/IDN60801/IDN60801.95770.json